createdAt,value
2023-01-12T00:01:47.463Z,37.03
2023-01-12T00:04:13.831Z,36.99
2023-01-12T00:06:41.412Z,36.97
2023-01-12T00:09:06.558Z,36.99
2023-01-12T00:11:32.949Z,36.98
2023-01-12T00:13:59.287Z,36.98
2023-01-12T00:16:26.275Z,37.01
2023-01-12T00:18:52.023Z,37.00
2023-01-12T00:21:18.414Z,36.98
2023-01-12T00:23:44.765Z,37.02
2023-01-12T00:26:11.152Z,37.02
2023-01-12T00:28:37.495Z,37.05
2023-01-12T00:31:03.930Z,37.04
2023-01-12T00:33:30.234Z,37.04
2023-01-12T00:35:56.612Z,37.19
2023-01-12T00:38:24.079Z,37.12
2023-01-12T00:40:49.355Z,37.06
2023-01-12T00:43:15.715Z,37.05
2023-01-12T00:45:42.094Z,37.01
2023-01-12T00:48:08.429Z,37.06
2023-01-12T00:50:34.821Z,37.18
2023-01-12T00:53:01.165Z,37.10
2023-01-12T00:55:27.657Z,37.10
2023-01-12T00:57:54.004Z,37.12
2023-01-12T01:00:20.395Z,37.12
2023-01-12T01:02:46.823Z,37.17
2023-01-12T01:05:13.199Z,37.31
2023-01-12T01:07:39.539Z,37.15
2023-01-12T01:10:06.014Z,37.21
2023-01-12T01:12:32.355Z,37.20
2023-01-12T01:14:58.756Z,37.13
2023-01-12T01:17:25.102Z,37.15
2023-01-12T01:19:51.485Z,37.19
2023-01-12T01:22:17.832Z,37.20
2023-01-12T01:24:44.234Z,37.23
2023-01-12T01:27:10.581Z,37.27
2023-01-12T01:29:37.004Z,37.39
2023-01-12T01:32:03.360Z,37.27
2023-01-12T01:34:29.777Z,37.21
2023-01-12T01:36:56.124Z,37.22
2023-01-12T01:39:22.528Z,37.22
2023-01-12T01:41:48.909Z,37.29
2023-01-12T01:44:15.250Z,37.20
2023-01-12T01:46:41.665Z,37.22
2023-01-12T01:49:07.967Z,37.21
2023-01-12T01:51:35.341Z,37.21
2023-01-12T01:54:00.733Z,37.25
2023-01-12T01:56:27.125Z,37.23
2023-01-12T01:58:53.466Z,37.16
2023-01-12T02:01:19.969Z,37.39
2023-01-12T02:03:46.207Z,37.34
2023-01-12T02:06:12.591Z,37.25
2023-01-12T02:08:38.937Z,37.28
2023-01-12T02:11:05.335Z,37.27
2023-01-12T02:13:31.672Z,37.32
2023-01-12T02:15:58.169Z,37.27
2023-01-12T02:18:24.508Z,37.36
2023-01-12T02:20:50.895Z,37.43
2023-01-12T02:23:17.271Z,37.36
2023-01-12T02:25:43.652Z,37.36
2023-01-12T02:28:10.076Z,37.36
2023-01-12T02:30:36.449Z,37.35
2023-01-12T02:33:02.827Z,37.33
2023-01-12T02:35:29.237Z,37.35
2023-01-12T02:37:55.568Z,37.32
2023-01-12T02:40:21.967Z,37.56
2023-01-12T02:42:48.298Z,37.54
2023-01-12T02:45:14.686Z,37.40
2023-01-12T02:47:41.059Z,37.38
2023-01-12T02:50:07.448Z,37.35
2023-01-12T02:52:33.790Z,37.37
2023-01-12T02:55:00.176Z,37.45
2023-01-12T02:57:26.511Z,37.38
2023-01-12T02:59:52.892Z,37.44
2023-01-12T03:02:19.231Z,37.40
2023-01-12T03:04:45.627Z,37.40
2023-01-12T03:07:11.972Z,37.42
2023-01-12T03:09:38.387Z,37.49
2023-01-12T03:12:06.066Z,37.46
2023-01-12T03:14:31.121Z,37.50
2023-01-12T03:16:57.477Z,37.56
2023-01-12T03:19:23.843Z,37.61
2023-01-12T03:21:50.190Z,37.60
2023-01-12T03:24:16.569Z,37.42
2023-01-12T03:26:42.921Z,37.33
2023-01-12T03:29:09.313Z,37.19
2023-01-12T03:31:35.687Z,37.14
2023-01-12T03:34:02.040Z,37.12
2023-01-12T03:36:28.383Z,36.97
2023-01-12T03:38:54.772Z,36.93
2023-01-12T03:41:21.119Z,36.81
2023-01-12T03:43:47.500Z,36.61
2023-01-12T03:46:13.846Z,36.37
2023-01-12T03:48:40.263Z,36.40
2023-01-12T03:51:06.611Z,36.36
2023-01-12T03:53:33.005Z,36.08
2023-01-12T03:55:59.347Z,35.93
2023-01-12T03:58:25.737Z,35.94
2023-01-12T04:00:52.170Z,35.88
2023-01-12T04:03:18.615Z,35.77
2023-01-12T04:05:44.915Z,35.76
2023-01-12T04:08:11.293Z,35.73
2023-01-12T04:10:37.638Z,35.62
2023-01-12T04:13:04.031Z,35.66
2023-01-12T04:15:30.389Z,35.63
2023-01-12T04:17:56.786Z,35.46
2023-01-12T04:20:23.131Z,35.23
2023-01-12T04:22:49.514Z,35.33
2023-01-12T04:25:15.866Z,35.38
2023-01-12T04:27:42.252Z,35.52
2023-01-12T04:30:08.600Z,35.44
2023-01-12T04:32:34.995Z,35.55
2023-01-12T04:35:01.337Z,35.57
2023-01-12T04:37:29.145Z,35.48
2023-01-12T04:39:54.061Z,35.39
2023-01-12T04:42:20.465Z,35.29
2023-01-12T04:44:46.810Z,35.26
2023-01-12T04:47:13.197Z,35.29
2023-01-12T04:49:39.542Z,35.27
2023-01-12T04:52:05.937Z,35.20
2023-01-12T04:54:32.273Z,35.15
2023-01-12T04:56:58.669Z,35.11
2023-01-12T04:59:25.001Z,35.03
2023-01-12T05:01:51.412Z,34.83
2023-01-12T05:04:17.800Z,34.74
2023-01-12T05:06:44.126Z,34.79
2023-01-12T05:09:10.552Z,34.68
2023-01-12T05:11:36.970Z,34.70
2023-01-12T05:14:03.312Z,34.22
2023-01-12T05:16:29.792Z,34.43
2023-01-12T05:18:56.069Z,34.27
2023-01-12T05:21:22.499Z,33.96
2023-01-12T05:23:48.830Z,33.84
2023-01-12T05:26:15.219Z,34.03
2023-01-12T05:28:41.558Z,33.74
2023-01-12T05:31:07.973Z,33.68
2023-01-12T05:33:34.298Z,34.56
2023-01-12T05:36:00.714Z,33.98
2023-01-12T05:38:27.067Z,33.85
2023-01-12T05:40:53.473Z,33.85
2023-01-12T05:43:19.811Z,33.80
2023-01-12T05:45:46.223Z,33.70
2023-01-12T05:48:12.538Z,33.57
2023-01-12T05:50:38.963Z,33.68
2023-01-12T05:53:05.312Z,33.60
2023-01-12T05:55:31.691Z,33.23
2023-01-12T05:57:58.035Z,33.16
2023-01-12T06:00:24.434Z,33.16
2023-01-12T06:02:50.777Z,33.21
2023-01-12T06:05:17.180Z,33.19
2023-01-12T06:07:43.507Z,33.37
2023-01-12T06:10:09.932Z,33.56
2023-01-12T06:12:36.308Z,33.80
2023-01-12T06:15:02.662Z,34.11
2023-01-12T06:17:29.021Z,34.53
2023-01-12T06:19:55.405Z,34.75
2023-01-12T06:22:21.747Z,34.76
2023-01-12T06:24:48.145Z,34.67
2023-01-12T06:27:14.501Z,34.38
2023-01-12T06:29:40.897Z,34.27
2023-01-12T06:32:07.226Z,34.18
2023-01-12T06:34:33.635Z,34.10
2023-01-12T06:36:59.973Z,34.02
2023-01-12T06:39:27.603Z,33.92
2023-01-12T06:41:52.742Z,33.81
2023-01-12T06:44:19.125Z,33.76
2023-01-12T06:46:45.475Z,33.67
2023-01-12T06:49:11.868Z,33.61
2023-01-12T06:51:38.203Z,33.56
2023-01-12T06:54:04.593Z,33.54
2023-01-12T06:56:30.934Z,33.58
2023-01-12T06:58:57.351Z,33.60
2023-01-12T07:01:23.844Z,33.43
2023-01-12T07:03:50.145Z,33.32
2023-01-12T07:06:16.474Z,33.42
2023-01-12T07:08:42.930Z,33.54
2023-01-12T07:11:09.255Z,33.56
2023-01-12T07:13:35.639Z,33.60
2023-01-12T07:16:02.147Z,33.65
2023-01-12T07:18:28.413Z,33.85
2023-01-12T07:20:54.799Z,33.84
2023-01-12T07:23:21.163Z,34.15
2023-01-12T07:25:47.519Z,34.09
2023-01-12T07:28:13.935Z,34.27
2023-01-12T07:30:40.249Z,33.94
2023-01-12T07:33:06.758Z,33.99
2023-01-12T07:35:33.109Z,34.10
2023-01-12T07:37:59.527Z,33.77
2023-01-12T07:40:25.900Z,33.68
2023-01-12T07:42:52.313Z,34.17
2023-01-12T07:45:18.693Z,34.25
2023-01-12T07:47:45.121Z,34.16
2023-01-12T07:50:13.053Z,34.30
2023-01-12T07:52:37.889Z,34.46
2023-01-12T07:55:04.250Z,34.46
2023-01-12T07:57:30.628Z,34.44
2023-01-12T07:59:57.006Z,34.42
2023-01-12T08:02:23.457Z,34.38
2023-01-12T08:04:49.751Z,34.14
2023-01-12T08:07:16.233Z,34.25
2023-01-12T08:09:42.585Z,34.20
2023-01-12T08:12:08.982Z,34.09
2023-01-12T08:14:35.362Z,33.88
2023-01-12T08:17:01.826Z,33.79
2023-01-12T08:19:28.114Z,33.76
2023-01-12T08:21:54.535Z,33.92
2023-01-12T08:24:20.890Z,33.95
2023-01-12T08:26:47.312Z,33.96
2023-01-12T08:29:13.664Z,34.02
2023-01-12T08:31:40.059Z,33.94
2023-01-12T08:34:06.427Z,33.92
2023-01-12T08:36:32.856Z,33.85
2023-01-12T08:38:59.195Z,33.83
2023-01-12T08:41:27.253Z,33.87
2023-01-12T08:43:51.969Z,34.18
2023-01-12T08:46:18.420Z,34.07
2023-01-12T08:48:44.730Z,33.89
2023-01-12T08:51:11.114Z,33.53
2023-01-12T08:53:37.514Z,33.53
2023-01-12T08:56:03.893Z,33.40
2023-01-12T08:58:30.303Z,33.40
2023-01-12T09:00:56.879Z,33.77
2023-01-12T09:03:23.055Z,33.77
2023-01-12T09:05:49.478Z,33.38
2023-01-12T09:08:15.941Z,33.42
2023-01-12T09:10:42.290Z,33.56
2023-01-12T09:13:08.672Z,33.54
2023-01-12T09:15:36.247Z,33.54
2023-01-12T09:18:01.438Z,33.54
2023-01-12T09:20:27.857Z,33.75
2023-01-12T09:22:54.232Z,33.75
2023-01-12T09:25:20.619Z,33.56
2023-01-12T09:27:46.966Z,33.65
2023-01-12T09:30:13.398Z,33.53
2023-01-12T09:32:39.748Z,33.53
2023-01-12T09:35:06.181Z,33.33
2023-01-12T09:37:32.602Z,33.33
2023-01-12T09:39:59.035Z,33.54
2023-01-12T09:42:25.374Z,33.68
2023-01-12T09:44:51.741Z,33.30
2023-01-12T09:47:18.121Z,33.30
2023-01-12T09:49:44.509Z,33.51
2023-01-12T09:52:10.885Z,33.96
2023-01-12T09:54:37.271Z,33.66
2023-01-12T09:57:03.610Z,33.66
2023-01-12T09:59:30.034Z,33.79
2023-01-12T10:01:56.528Z,33.92
2023-01-12T10:04:22.891Z,33.97
2023-01-12T10:06:49.230Z,33.97
2023-01-12T10:09:15.694Z,33.98
2023-01-12T10:11:42.036Z,34.10
2023-01-12T10:14:08.438Z,34.31
2023-01-12T10:16:34.857Z,34.23
2023-01-12T10:19:01.230Z,34.23
2023-01-12T10:21:27.604Z,34.13
2023-01-12T10:23:53.970Z,33.67
2023-01-12T10:26:20.342Z,33.67
2023-01-12T10:28:46.755Z,33.54
2023-01-12T10:31:13.104Z,33.35
2023-01-12T10:33:39.491Z,33.39
2023-01-12T10:36:05.833Z,33.20
2023-01-12T10:38:32.250Z,33.32
2023-01-12T10:40:58.701Z,33.32
2023-01-12T10:43:25.117Z,33.70
2023-01-12T10:45:51.535Z,33.53
2023-01-12T10:48:17.883Z,33.90
2023-01-12T10:50:44.219Z,33.43
2023-01-12T10:53:10.645Z,33.43
2023-01-12T10:55:37.007Z,33.54
2023-01-12T10:58:03.389Z,33.42
2023-01-12T11:00:29.797Z,33.36
2023-01-12T11:02:56.209Z,33.29
2023-01-12T11:05:22.521Z,33.35
2023-01-12T11:07:48.904Z,33.43
2023-01-12T11:10:15.257Z,33.56
2023-01-12T11:12:41.648Z,33.59
2023-01-12T11:15:08.056Z,33.88
2023-01-12T11:17:34.436Z,33.88
2023-01-12T11:20:00.819Z,33.58
2023-01-12T11:22:27.218Z,33.44
2023-01-12T11:24:53.617Z,33.36
2023-01-12T11:27:20.000Z,33.36
2023-01-12T11:29:46.375Z,33.53
2023-01-12T11:32:12.765Z,33.16
2023-01-12T11:34:39.145Z,33.42
2023-01-12T11:37:11.089Z,33.24
2023-01-12T11:39:37.438Z,33.24
2023-01-12T11:42:03.889Z,33.29
2023-01-12T11:44:30.224Z,33.51
2023-01-12T11:46:56.655Z,33.82
2023-01-12T11:49:23.000Z,33.82
2023-01-12T11:51:49.385Z,33.53
2023-01-12T11:54:15.750Z,33.77
2023-01-12T11:59:27.380Z,34.32
2023-01-12T12:01:53.788Z,33.90
2023-01-12T12:04:20.176Z,33.90
2023-01-12T12:06:46.513Z,33.29
2023-01-12T12:09:12.956Z,33.29
2023-01-12T12:11:41.703Z,32.97
2023-01-12T12:14:05.740Z,33.07
2023-01-12T12:16:32.079Z,33.07
2023-01-12T12:18:58.503Z,33.28
2023-01-12T12:21:24.953Z,32.95
2023-01-12T12:23:51.372Z,32.95
2023-01-12T12:26:17.718Z,33.35
2023-01-12T12:28:44.137Z,33.35
2023-01-12T12:31:10.598Z,33.43
2023-01-12T12:33:36.964Z,33.84
2023-01-12T12:36:03.309Z,33.22
2023-01-12T12:38:29.771Z,33.54
2023-01-12T12:40:56.092Z,33.54
2023-01-12T12:43:22.482Z,33.26
2023-01-12T12:45:48.836Z,33.26
2023-01-12T12:48:15.234Z,33.39
2023-01-12T12:50:41.592Z,33.28
2023-01-12T12:53:08.006Z,33.25
2023-01-12T12:55:34.391Z,33.38
2023-01-12T12:58:00.784Z,33.21
2023-01-12T13:00:29.580Z,33.53
2023-01-12T13:02:56.044Z,33.53
2023-01-12T13:05:22.347Z,33.73
2023-01-12T13:07:48.752Z,33.73
2023-01-12T13:10:15.114Z,33.55
2023-01-12T13:12:41.490Z,33.47
2023-01-12T13:15:07.837Z,33.62
2023-01-12T13:17:34.375Z,33.52
2023-01-12T13:20:01.456Z,33.46
2023-01-12T13:22:27.152Z,33.46
2023-01-12T13:24:53.560Z,33.55
2023-01-12T13:27:19.950Z,33.57
2023-01-12T13:29:46.297Z,33.55
2023-01-12T13:32:12.686Z,33.13
2023-01-12T13:34:39.083Z,33.13
2023-01-12T13:37:05.456Z,33.35
2023-01-12T13:39:31.802Z,33.34
2023-01-12T13:41:58.171Z,33.32
2023-01-12T13:44:24.537Z,33.63
2023-01-12T13:46:50.919Z,33.63
2023-01-12T13:49:17.302Z,33.42
2023-01-12T13:51:43.689Z,33.62
2023-01-12T13:54:10.084Z,33.75
2023-01-12T13:56:36.463Z,33.63
2023-01-12T13:59:02.826Z,33.57
2023-01-12T14:01:29.294Z,33.57
2023-01-12T14:03:55.545Z,33.57
2023-01-12T14:06:21.949Z,33.54
2023-01-12T14:08:51.642Z,33.51
2023-01-12T14:11:14.685Z,33.42
2023-01-12T14:13:41.045Z,33.42
2023-01-12T14:16:07.484Z,34.04
2023-01-12T14:18:33.801Z,34.04
2023-01-12T14:21:00.195Z,33.51
2023-01-12T14:23:26.525Z,33.43
2023-01-12T14:25:52.932Z,33.08
2023-01-12T14:28:19.286Z,33.08
2023-01-12T14:30:45.674Z,33.46
2023-01-12T14:33:14.124Z,33.60
2023-01-12T14:35:38.407Z,33.60
2023-01-12T14:38:04.752Z,33.87
2023-01-12T14:40:31.140Z,33.77
2023-01-12T14:42:57.496Z,33.79
2023-01-12T14:45:23.884Z,33.72
2023-01-12T14:47:50.217Z,33.52
2023-01-12T14:50:16.606Z,33.89
2023-01-12T14:52:42.973Z,33.58
2023-01-12T14:55:09.394Z,33.51
2023-01-12T14:57:35.729Z,33.41
2023-01-12T15:00:02.137Z,33.40
2023-01-12T15:02:28.523Z,33.36
2023-01-12T15:04:56.251Z,33.34
2023-01-12T15:07:22.499Z,33.34
2023-01-12T15:09:47.711Z,33.40
2023-01-12T15:12:14.078Z,33.40
2023-01-12T15:14:40.485Z,33.36
2023-01-12T15:17:06.842Z,33.60
2023-01-12T15:19:33.296Z,33.59
2023-01-12T15:21:59.585Z,33.72
2023-01-12T15:24:25.972Z,33.57
2023-01-12T15:27:05.513Z,33.47
2023-01-12T15:29:18.885Z,33.80
2023-01-12T15:31:45.209Z,33.80
2023-01-12T15:34:11.661Z,33.74
2023-01-12T15:36:38.052Z,33.75
2023-01-12T15:39:04.519Z,33.60
2023-01-12T15:41:30.836Z,33.38
2023-01-12T15:43:57.247Z,33.38
2023-01-12T15:46:23.601Z,33.38
2023-01-12T15:48:50.021Z,33.29
2023-01-12T15:51:16.404Z,33.26
2023-01-12T15:53:42.794Z,33.19
2023-01-12T15:56:09.163Z,33.21
2023-01-12T15:58:35.661Z,33.09
2023-01-12T16:01:02.089Z,32.96
2023-01-12T16:03:57.280Z,33.13
2023-01-12T16:05:54.866Z,33.37
2023-01-12T16:08:21.292Z,33.37
2023-01-12T16:10:47.663Z,33.63
2023-01-12T16:13:14.094Z,34.12
2023-01-12T16:15:40.466Z,34.12
2023-01-12T16:18:06.908Z,33.69
2023-01-12T16:20:33.332Z,33.61
2023-01-12T16:22:59.775Z,33.42
2023-01-12T16:25:26.195Z,33.34
2023-01-12T16:27:52.559Z,33.38
2023-01-12T16:30:18.987Z,33.38
2023-01-12T16:32:45.389Z,33.23
2023-01-12T16:35:11.756Z,33.66
2023-01-12T16:37:38.223Z,33.41
2023-01-12T16:40:04.570Z,33.18
2023-01-12T16:42:30.962Z,33.23
2023-01-12T16:44:57.332Z,33.19
2023-01-12T16:47:23.728Z,32.97
2023-01-12T16:49:50.111Z,33.03
2023-01-12T16:52:16.542Z,33.31
2023-01-12T16:54:43.079Z,33.55
2023-01-12T16:57:09.269Z,32.98
2023-01-12T16:59:35.619Z,32.98
2023-01-12T17:02:02.299Z,33.40
2023-01-12T17:04:28.471Z,33.44
2023-01-12T17:06:54.839Z,33.37
2023-01-12T17:09:21.191Z,33.37
2023-01-12T17:11:47.598Z,33.25
2023-01-12T17:14:13.964Z,33.20
2023-01-12T17:16:40.408Z,33.20
2023-01-12T17:19:07.214Z,33.24
2023-01-12T17:21:33.620Z,32.93
2023-01-12T17:23:59.949Z,32.93
2023-01-12T17:26:26.347Z,32.90
2023-01-12T17:28:52.703Z,32.78
2023-01-12T17:31:19.415Z,32.49
2023-01-12T17:33:45.717Z,32.96
2023-01-12T17:36:12.144Z,32.98
2023-01-12T17:38:39.799Z,32.98
2023-01-12T17:41:04.864Z,33.95
2023-01-12T17:43:31.255Z,33.95
2023-01-12T17:45:57.627Z,33.48
2023-01-12T17:48:24.057Z,33.24
2023-01-12T17:50:50.466Z,33.29
2023-01-12T17:53:16.818Z,33.43
2023-01-12T17:55:48.323Z,33.87
2023-01-12T17:58:09.593Z,33.87
2023-01-12T18:00:36.011Z,33.64
2023-01-12T18:03:04.717Z,33.45
2023-01-12T18:05:31.156Z,33.27
2023-01-12T18:07:57.497Z,33.35
2023-01-12T18:10:23.901Z,33.28
2023-01-12T18:12:50.356Z,33.26
2023-01-12T18:15:16.772Z,33.16
2023-01-12T18:17:43.258Z,33.11
2023-01-12T18:20:09.614Z,32.97
2023-01-12T18:22:35.975Z,32.97
2023-01-12T18:25:02.467Z,33.01
2023-01-12T18:27:28.792Z,32.80
2023-01-12T18:29:55.241Z,32.80
2023-01-12T18:32:21.657Z,33.13
2023-01-12T18:34:48.087Z,33.43
2023-01-12T18:37:14.436Z,33.70
2023-01-12T18:39:40.918Z,33.91
2023-01-12T18:42:08.244Z,33.54
2023-01-12T18:44:33.682Z,33.42
2023-01-12T18:47:00.036Z,33.28
2023-01-12T18:49:26.490Z,33.13
2023-01-12T18:51:52.869Z,33.08
2023-01-12T18:54:19.248Z,32.99
2023-01-12T18:56:45.644Z,33.14
2023-01-12T18:59:12.104Z,33.37
2023-01-12T19:01:38.528Z,33.61
2023-01-12T19:04:04.862Z,33.89
2023-01-12T19:06:31.189Z,34.01
2023-01-12T19:08:57.596Z,33.92
2023-01-12T19:11:23.961Z,34.02
2023-01-12T19:13:50.363Z,34.11
2023-01-12T19:16:16.783Z,34.24
2023-01-12T19:18:43.095Z,34.17
2023-01-12T19:21:09.466Z,34.26
2023-01-12T19:23:35.876Z,34.35
2023-01-12T19:26:02.236Z,34.40
2023-01-12T19:28:28.628Z,34.46
2023-01-12T19:30:55.075Z,34.71
2023-01-12T19:33:21.528Z,34.79
2023-01-12T19:35:47.899Z,34.90
2023-01-12T19:38:14.301Z,34.95
2023-01-12T19:40:40.664Z,35.01
2023-01-12T19:43:07.144Z,35.05
2023-01-12T19:45:33.470Z,35.10
2023-01-12T19:47:59.926Z,35.16
2023-01-12T19:50:26.259Z,35.18
2023-01-12T19:52:52.741Z,35.22
2023-01-12T19:55:19.120Z,35.15
2023-01-12T19:57:45.542Z,35.30
2023-01-12T20:00:11.898Z,35.23
2023-01-12T20:02:38.300Z,35.20
2023-01-12T20:05:04.769Z,35.24
2023-01-12T20:07:31.169Z,35.39
2023-01-12T20:09:57.589Z,35.45
2023-01-12T20:12:23.975Z,35.41
2023-01-12T20:14:50.371Z,35.33
2023-01-12T20:17:16.857Z,35.35
2023-01-12T20:19:43.298Z,35.35
2023-01-12T20:22:09.780Z,35.41
2023-01-12T20:24:36.114Z,35.42
2023-01-12T20:27:02.518Z,35.45
2023-01-12T20:29:28.864Z,35.46
2023-01-12T20:31:55.293Z,35.49
2023-01-12T20:34:21.625Z,35.55
2023-01-12T20:36:48.017Z,35.59
2023-01-12T20:39:14.452Z,35.61
2023-01-12T20:41:40.827Z,35.63
2023-01-12T20:44:07.216Z,35.66
2023-01-12T20:46:33.693Z,35.66
2023-01-12T20:48:59.982Z,35.69
2023-01-12T20:51:26.396Z,35.71
2023-01-12T20:53:52.786Z,35.86
2023-01-12T20:56:19.248Z,35.93
2023-01-12T20:58:45.661Z,35.92
2023-01-12T21:01:12.263Z,35.96
2023-01-12T21:03:38.541Z,35.96
2023-01-12T21:06:04.925Z,35.80
2023-01-12T21:08:31.233Z,35.84
2023-01-12T21:10:57.638Z,35.84
2023-01-12T21:13:24.069Z,35.85
2023-01-12T21:15:50.458Z,35.84
2023-01-12T21:18:16.924Z,35.96
2023-01-12T21:20:43.245Z,35.93
2023-01-12T21:23:09.600Z,36.03
2023-01-12T21:25:36.003Z,36.11
2023-01-12T21:28:02.470Z,36.11
2023-01-12T21:30:28.907Z,36.04
2023-01-12T21:32:55.275Z,36.09
2023-01-12T21:35:21.687Z,36.16
2023-01-12T21:37:48.051Z,36.16
2023-01-12T21:40:14.528Z,36.27
2023-01-12T21:42:40.858Z,36.27
2023-01-12T21:45:07.239Z,36.24
2023-01-12T21:47:33.587Z,36.13
2023-01-12T21:50:00.001Z,36.14
2023-01-12T21:52:26.491Z,36.15
2023-01-12T21:54:52.874Z,36.16
2023-01-12T21:57:19.333Z,36.26
2023-01-12T21:59:45.737Z,36.20
2023-01-12T22:02:12.153Z,36.15
2023-01-12T22:04:40.918Z,36.19
2023-01-12T22:07:07.263Z,36.18
2023-01-12T22:09:33.675Z,36.31
2023-01-12T22:12:00.023Z,36.20
2023-01-12T22:14:26.528Z,36.21
2023-01-12T22:16:52.907Z,36.34
2023-01-12T22:19:19.266Z,36.26
2023-01-12T22:21:45.607Z,36.29
2023-01-12T22:24:12.200Z,36.35
2023-01-12T22:26:38.611Z,36.40
2023-01-12T22:29:05.002Z,36.50
2023-01-12T22:31:31.412Z,36.45
2023-01-12T22:33:57.773Z,36.33
2023-01-12T22:39:06.488Z,36.44
2023-01-12T22:41:32.861Z,36.59
2023-01-12T22:43:59.359Z,36.66
2023-01-12T22:46:25.740Z,36.64
2023-01-12T22:48:52.099Z,36.71
2023-01-12T22:51:18.451Z,36.72
2023-01-12T22:53:44.878Z,36.72
2023-01-12T22:56:11.193Z,36.74
2023-01-12T22:58:37.607Z,36.76
2023-01-12T23:01:03.995Z,36.74
2023-01-12T23:03:30.393Z,36.69
2023-01-12T23:05:56.669Z,36.73
2023-01-12T23:08:23.017Z,36.65
2023-01-12T23:10:49.363Z,36.62
2023-01-12T23:13:15.826Z,36.61
2023-01-12T23:15:42.198Z,36.61
2023-01-12T23:18:08.504Z,36.68
2023-01-12T23:20:34.888Z,36.70
2023-01-12T23:23:01.233Z,36.76
2023-01-12T23:25:27.664Z,36.73
2023-01-12T23:27:54.033Z,36.77
2023-01-12T23:30:20.402Z,36.79
2023-01-12T23:32:46.790Z,36.79
2023-01-12T23:35:13.139Z,36.88
2023-01-12T23:37:39.479Z,36.85
2023-01-12T23:40:05.821Z,36.86
2023-01-12T23:42:33.669Z,36.87
2023-01-12T23:44:58.528Z,36.89
2023-01-12T23:47:24.891Z,36.85
2023-01-12T23:49:51.283Z,36.85
2023-01-12T23:52:17.620Z,36.88
2023-01-12T23:54:44.010Z,36.90
2023-01-12T23:57:10.384Z,36.88
2023-01-12T23:59:38.481Z,36.81
